createdAt,value
2023-01-12T00:01:20.049Z,17.2
2023-01-12T00:11:02.499Z,16.9
2023-01-12T00:16:09.057Z,16.8
2023-01-12T00:21:31.861Z,16.8
2023-01-12T00:31:45.911Z,16.9
2023-01-12T00:37:08.566Z,16.9
2023-01-12T00:42:36.223Z,16.8
2023-01-12T00:47:58.289Z,16.6
2023-01-12T00:53:21.411Z,16.4
2023-01-12T00:58:43.570Z,16.4
2023-01-12T01:04:06.923Z,16.5
2023-01-12T01:08:58.404Z,16.6
2023-01-12T01:13:50.437Z,16.6
2023-01-12T01:18:57.732Z,16.5
2023-01-12T01:24:04.744Z,16.4
2023-01-12T01:28:56.371Z,16.3
2023-01-12T01:34:02.215Z,16.1
2023-01-12T01:39:09.000Z,16.1
2023-01-12T01:44:31.320Z,16.2
2023-01-12T01:49:53.663Z,16.3
2023-01-12T01:55:00.696Z,16.4
2023-01-12T02:00:23.036Z,16.4
2023-01-12T02:05:34.616Z,16.3
2023-01-12T02:10:26.061Z,16.1
2023-01-12T02:15:48.926Z,16
2023-01-12T02:21:10.504Z,15.9
2023-01-12T02:26:32.765Z,16
2023-01-12T02:31:40.408Z,16.1
2023-01-12T02:37:02.418Z,16.2
2023-01-12T02:42:27.298Z,16.1
2023-01-12T02:47:49.625Z,16.1
2023-01-12T02:53:10.666Z,15.9
2023-01-12T02:58:33.487Z,15.8
2023-01-12T03:03:56.603Z,15.8
2023-01-12T03:09:18.471Z,15.9
2023-01-12T03:14:25.384Z,16.1
2023-01-12T03:19:47.834Z,16.1
2023-01-12T03:25:10.199Z,16.1
2023-01-12T03:30:17.148Z,15.9
2023-01-12T03:35:39.932Z,15.9
2023-01-12T03:41:02.539Z,15.8
2023-01-12T03:46:25.366Z,15.7
2023-01-12T03:51:47.953Z,15.8
2023-01-12T03:57:09.229Z,15.9
2023-01-12T04:02:32.118Z,15.9
2023-01-12T04:07:55.063Z,15.9
2023-01-12T04:12:46.100Z,15.8
2023-01-12T04:18:09.211Z,15.7
2023-01-12T04:23:32.138Z,15.6
2023-01-12T04:28:22.261Z,15.6
2023-01-12T04:33:45.067Z,15.7
2023-01-12T04:39:07.758Z,15.7
2023-01-12T04:44:32.503Z,15.7
2023-01-12T04:49:54.492Z,15.8
2023-01-12T04:55:17.459Z,15.9
2023-01-12T05:00:39.990Z,15.9
2023-01-12T05:06:05.637Z,15.8
2023-01-12T05:11:27.815Z,15.6
2023-01-12T05:16:49.900Z,15.6
2023-01-12T05:22:15.887Z,15.4
2023-01-12T05:27:22.604Z,15.5
2023-01-12T05:32:46.788Z,15.6
2023-01-12T05:37:53.959Z,15.7
2023-01-12T05:43:00.967Z,15.7
2023-01-12T05:48:22.804Z,15.6
2023-01-12T05:53:44.800Z,15.6
2023-01-12T05:58:52.208Z,15.4
2023-01-12T06:04:15.413Z,15.4
2023-01-12T06:09:09.096Z,15.4
2023-01-12T06:14:16.048Z,15.4
2023-01-12T06:19:38.914Z,15.6
2023-01-12T06:25:01.744Z,15.6
2023-01-12T06:30:23.884Z,15.6
2023-01-12T06:35:54.214Z,15.5
2023-01-12T06:41:17.198Z,15.4
2023-01-12T06:46:40.354Z,15.3
2023-01-12T06:52:02.668Z,15.3
2023-01-12T06:57:24.579Z,15.4
2023-01-12T07:02:47.708Z,15.6
2023-01-12T07:08:10.282Z,15.5
2023-01-12T07:13:33.608Z,15.6
2023-01-12T07:18:58.791Z,15.4
2023-01-12T07:24:21.482Z,15.4
2023-01-12T07:29:46.783Z,15.2
2023-01-12T07:35:09.279Z,15.2
2023-01-12T07:40:34.272Z,15.3
2023-01-12T07:45:56.885Z,15.4
2023-01-12T07:51:21.373Z,15.4
2023-01-12T07:56:44.353Z,15.3
2023-01-12T08:02:09.655Z,15.3
2023-01-12T08:07:32.284Z,15.1
2023-01-12T08:12:55.207Z,15.1
2023-01-12T08:18:17.722Z,15.1
2023-01-12T08:23:41.812Z,15
2023-01-12T08:29:04.618Z,14.9
2023-01-12T08:34:43.410Z,14.9
2023-01-12T08:40:08.921Z,14.9
2023-01-12T08:45:32.856Z,15
2023-01-12T08:50:59.321Z,15.1
2023-01-12T08:56:21.873Z,15.1
2023-01-12T09:01:30.111Z,14.9
2023-01-12T09:06:37.866Z,14.9
2023-01-12T09:12:00.921Z,14.8
2023-01-12T09:17:38.219Z,14.8
2023-01-12T09:23:01.542Z,14.7
2023-01-12T09:28:26.580Z,14.6
2023-01-12T09:33:59.225Z,14.8
2023-01-12T09:39:28.326Z,14.9
2023-01-12T09:44:36.048Z,14.9
2023-01-12T09:50:08.640Z,14.9
2023-01-12T09:55:31.483Z,14.8
2023-01-12T10:01:08.997Z,14.8
2023-01-12T10:06:47.233Z,14.7
2023-01-12T10:12:10.460Z,14.6
2023-01-12T10:17:17.619Z,14.6
2023-01-12T10:22:59.923Z,14.6
2023-01-12T10:28:22.857Z,14.8
2023-01-12T10:33:49.887Z,14.9
2023-01-12T10:39:11.959Z,14.9
2023-01-12T10:44:45.037Z,14.8
2023-01-12T10:50:07.836Z,14.8
2023-01-12T10:55:33.688Z,14.7
2023-01-12T11:00:56.650Z,14.6
2023-01-12T11:06:20.981Z,14.6
2023-01-12T11:11:45.474Z,14.6
2023-01-12T11:17:12.460Z,14.8
2023-01-12T11:22:38.816Z,14.9
2023-01-12T11:28:00.955Z,14.8
2023-01-12T11:33:09.248Z,14.7
2023-01-12T11:38:16.779Z,14.8
2023-01-12T11:43:24.061Z,14.8
2023-01-12T11:48:49.847Z,14.6
2023-01-12T11:54:14.614Z,14.6
2023-01-12T11:59:39.739Z,14.6
2023-01-12T12:05:04.330Z,14.7
2023-01-12T12:10:27.229Z,14.8
2023-01-12T12:15:53.434Z,14.8
2023-01-12T12:21:03.021Z,14.7
2023-01-12T12:26:27.005Z,14.6
2023-01-12T12:31:49.826Z,14.6
2023-01-12T12:36:57.037Z,14.6
2023-01-12T12:42:20.344Z,14.6
2023-01-12T12:47:43.190Z,14.6
2023-01-12T12:53:05.611Z,14.8
2023-01-12T12:58:31.743Z,14.8
2023-01-12T13:03:24.492Z,14.7
2023-01-12T13:08:16.537Z,14.6
2023-01-12T13:13:26.729Z,14.6
2023-01-12T13:18:49.916Z,14.6
2023-01-12T13:24:20.851Z,14.6
2023-01-12T13:29:44.113Z,14.7
2023-01-12T13:34:38.013Z,14.8
2023-01-12T13:40:04.119Z,14.8
2023-01-12T13:45:14.737Z,14.7
2023-01-12T13:50:38.031Z,14.6
2023-01-12T13:56:01.202Z,14.6
2023-01-12T14:01:25.226Z,14.6
2023-01-12T14:06:51.365Z,14.7
2023-01-12T14:12:28.032Z,14.9
2023-01-12T14:18:13.361Z,14.9
2023-01-12T14:23:35.781Z,14.9
2023-01-12T14:28:58.959Z,14.9
2023-01-12T14:34:22.571Z,14.8
2023-01-12T14:39:44.629Z,14.7
2023-01-12T14:45:07.785Z,14.6
2023-01-12T14:50:31.061Z,14.7
2023-01-12T14:55:53.356Z,14.8
2023-01-12T15:01:16.824Z,14.9
2023-01-12T15:06:48.791Z,14.8
2023-01-12T15:12:11.053Z,14.6
2023-01-12T15:17:33.603Z,14.5
2023-01-12T15:22:56.613Z,14.5
2023-01-12T15:28:31.275Z,14.7
2023-01-12T15:34:07.379Z,14.7
2023-01-12T15:39:30.146Z,14.8
2023-01-12T15:44:52.069Z,14.6
2023-01-12T15:50:15.170Z,14.6
2023-01-12T15:55:37.864Z,14.4
2023-01-12T16:00:43.991Z,14.4
2023-01-12T16:07:13.039Z,14.8
2023-01-12T16:12:37.792Z,27.4
2023-01-12T16:17:45.167Z,35.2
2023-01-12T16:23:07.845Z,37.6
2023-01-12T16:28:32.450Z,39
2023-01-12T16:33:56.426Z,38.6
2023-01-12T16:39:19.134Z,37.2
2023-01-12T16:44:28.816Z,36.6
2023-01-12T16:49:36.367Z,38.1
2023-01-12T16:54:59.747Z,39.7
2023-01-12T17:00:26.451Z,40.8
2023-01-12T17:05:53.403Z,40
2023-01-12T17:10:48.063Z,39.5
2023-01-12T17:16:23.771Z,44.7
2023-01-12T17:21:34.388Z,42.4
2023-01-12T17:26:59.769Z,42.7
2023-01-12T17:31:56.406Z,44.1
2023-01-12T17:37:03.822Z,41.2
2023-01-12T17:42:27.309Z,46
2023-01-12T17:47:51.908Z,44.5
2023-01-12T17:53:02.914Z,44.6
2023-01-12T17:58:20.650Z,44.1
2023-01-12T18:03:45.380Z,42.9
2023-01-12T18:09:31.316Z,44.9
2023-01-12T18:14:55.413Z,43.9
2023-01-12T18:20:04.499Z,44.8
2023-01-12T18:25:27.689Z,45.4
2023-01-12T18:30:52.819Z,45.7
2023-01-12T18:36:18.368Z,46.4
2023-01-12T18:41:43.442Z,45.9
2023-01-12T18:47:09.619Z,45.7
2023-01-12T18:52:20.228Z,45
2023-01-12T18:57:49.191Z,43.8
2023-01-12T19:03:17.468Z,46.4
2023-01-12T19:08:46.222Z,43.2
2023-01-12T19:14:16.254Z,43.7
2023-01-12T19:19:46.655Z,43.3
2023-01-12T19:24:45.864Z,44
2023-01-12T19:30:03.183Z,43.3
2023-01-12T19:35:46.465Z,44.1
2023-01-12T19:41:17.745Z,43.9
2023-01-12T19:46:48.853Z,42.1
2023-01-12T19:52:21.128Z,40.9
2023-01-12T19:57:34.919Z,38.8
2023-01-12T20:03:04.399Z,38.1
2023-01-12T20:08:16.758Z,39.9
2023-01-12T20:13:45.838Z,35.9
2023-01-12T20:19:17.743Z,34.3
2023-01-12T20:24:31.162Z,34.4
2023-01-12T20:29:45.180Z,33.6
2023-01-12T20:35:30.944Z,32.1
2023-01-12T20:40:58.801Z,31
2023-01-12T20:46:24.126Z,30
2023-01-12T20:51:51.258Z,29.2
2023-01-12T20:57:15.202Z,28.6
2023-01-12T21:02:27.666Z,28
2023-01-12T21:07:39.847Z,27.5
2023-01-12T21:13:00.997Z,27.1
2023-01-12T21:18:24.916Z,26.7
2023-01-12T21:23:47.988Z,26.4
2023-01-12T21:29:11.109Z,26
2023-01-12T21:34:35.038Z,25.8
2023-01-12T21:39:58.324Z,25.5
2023-01-12T21:45:05.614Z,25.3
2023-01-12T21:50:15.805Z,24.2
2023-01-12T21:55:23.491Z,23.1
2023-01-12T22:00:30.474Z,22.1
2023-01-12T22:05:54.604Z,21.4
2023-01-12T22:11:01.896Z,20.7
2023-01-12T22:16:09.179Z,20.3
2023-01-12T22:21:31.983Z,19.8
2023-01-12T22:26:54.067Z,19.4
2023-01-12T22:32:16.940Z,19.1
2023-01-12T22:37:42.979Z,19
2023-01-12T22:42:49.738Z,18.8
2023-01-12T22:48:04.969Z,18.6
2023-01-12T22:53:28.143Z,18.3
2023-01-12T22:58:50.355Z,18.1
2023-01-12T23:03:58.041Z,17.8
2023-01-12T23:09:05.217Z,17.6
2023-01-12T23:14:12.272Z,17.4
2023-01-12T23:19:34.624Z,17.3
2023-01-12T23:24:56.672Z,17.3
2023-01-12T23:30:03.243Z,17.3
2023-01-12T23:35:24.893Z,17.3
2023-01-12T23:40:32.200Z,17.1
2023-01-12T23:45:53.808Z,16.9
2023-01-12T23:51:15.585Z,16.8
2023-01-12T23:56:38.003Z,16.6
